sensor_id;sensor_type;location;lat;lon;timestamp;temperature;humidity
11536;DHT22;5824;49.336;8.652;2024-03-23T00:55:43;12.30;1.00
11536;DHT22;5824;49.336;8.652;2024-03-23T00:58:08;15.40;1.00
11536;DHT22;5824;49.336;8.652;2024-03-23T01:00:34;12.50;1.00
11536;DHT22;5824;49.336;8.652;2024-03-23T01:02:59;12.50;1.00
11536;DHT22;5824;49.336;8.652;2024-03-23T01:05:25;12.50;1.00
11536;DHT22;5824;49.336;8.652;2024-03-23T01:07:51;12.60;1.00
11536;DHT22;5824;49.336;8.652;2024-03-23T01:10:16;12.70;1.00
11536;DHT22;5824;49.336;8.652;2024-03-23T01:12:42;12.70;1.00
11536;DHT22;5824;49.336;8.652;2024-03-23T01:15:07;12.60;1.00
11536;DHT22;5824;49.336;8.652;2024-03-23T01:17:33;12.60;1.00
11536;DHT22;5824;49.336;8.652;2024-03-23T01:19:59;12.70;1.00
11536;DHT22;5824;49.336;8.652;2024-03-23T01:22:24;12.80;1.00
11536;DHT22;5824;49.336;8.652;2024-03-23T01:24:49;12.80;1.00
11536;DHT22;5824;49.336;8.652;2024-03-23T01:27:15;12.80;1.00
11536;DHT22;5824;49.336;8.652;2024-03-23T01:29:40;12.90;1.00
11536;DHT22;5824;49.336;8.652;2024-03-23T01:32:06;12.80;1.00
11536;DHT22;5824;49.336;8.652;2024-03-23T01:34:32;12.70;1.00
11536;DHT22;5824;49.336;8.652;2024-03-23T01:36:58;12.60;1.00
11536;DHT22;5824;49.336;8.652;2024-03-23T01:39:24;12.60;1.00
11536;DHT22;5824;49.336;8.652;2024-03-23T01:41:49;12.70;1.00
11536;DHT22;5824;49.336;8.652;2024-03-23T01:44:15;12.80;1.00
11536;DHT22;5824;49.336;8.652;2024-03-23T01:46:41;12.90;1.00
11536;DHT22;5824;49.336;8.652;2024-03-23T01:49:08;13.00;1.00
11536;DHT22;5824;49.336;8.652;2024-03-23T01:51:34;13.10;1.00
11536;DHT22;5824;49.336;8.652;2024-03-23T01:54:01;13.10;1.00
11536;DHT22;5824;49.336;8.652;2024-03-23T01:56:35;13.10;1.00
11536;DHT22;5824;49.336;8.652;2024-03-23T01:59:07;13.10;1.00
11536;DHT22;5824;49.336;8.652;2024-03-23T02:01:34;13.20;1.00
11536;DHT22;5824;49.336;8.652;2024-03-23T02:04:01;13.20;1.00
11536;DHT22;5824;49.336;8.652;2024-03-23T02:06:27;13.10;1.00
11536;DHT22;5824;49.336;8.652;2024-03-23T02:08:54;13.20;1.00
11536;DHT22;5824;49.336;8.652;2024-03-23T02:11:19;13.20;1.00
11536;DHT22;5824;49.336;8.652;2024-03-23T02:13:45;13.20;1.00
11536;DHT22;5824;49.336;8.652;2024-03-23T02:16:11;13.20;1.00
11536;DHT22;5824;49.336;8.652;2024-03-23T02:18:36;13.30;1.00
11536;DHT22;5824;49.336;8.652;2024-03-23T02:21:02;13.40;1.00
11536;DHT22;5824;49.336;8.652;2024-03-23T02:23:28;13.40;1.00
11536;DHT22;5824;49.336;8.652;2024-03-23T02:25:53;13.40;1.00
11536;DHT22;5824;49.336;8.652;2024-03-23T02:28:20;13.40;1.00
11536;DHT22;5824;49.336;8.652;2024-03-23T02:30:45;13.40;1.00
11536;DHT22;5824;49.336;8.652;2024-03-23T02:33:11;13.40;1.00
11536;DHT22;5824;49.336;8.652;2024-03-23T02:35:37;13.50;1.00
11536;DHT22;5824;49.336;8.652;2024-03-23T02:38:02;13.30;1.00
11536;DHT22;5824;49.336;8.652;2024-03-23T02:40:28;13.30;1.00
11536;DHT22;5824;49.336;8.652;2024-03-23T02:42:54;13.40;1.00
11536;DHT22;5824;49.336;8.652;2024-03-23T02:45:20;13.40;1.00
11536;DHT22;5824;49.336;8.652;2024-03-23T02:47:45;13.40;1.00
11536;DHT22;5824;49.336;8.652;2024-03-23T02:50:11;13.40;1.00
11536;DHT22;5824;49.336;8.652;2024-03-23T02:52:36;13.50;1.00
11536;DHT22;5824;49.336;8.652;2024-03-23T02:55:03;13.50;1.00
11536;DHT22;5824;49.336;8.652;2024-03-23T02:57:28;13.50;1.00
11536;DHT22;5824;49.336;8.652;2024-03-23T02:59:54;13.50;1.00
11536;DHT22;5824;49.336;8.652;2024-03-23T03:02:20;13.60;1.00
11536;DHT22;5824;49.336;8.652;2024-03-23T03:04:46;13.50;1.00
11536;DHT22;5824;49.336;8.652;2024-03-23T03:07:11;13.60;1.00
11536;DHT22;5824;49.336;8.652;2024-03-23T03:09:37;13.50;1.00
11536;DHT22;5824;49.336;8.652;2024-03-23T03:12:07;13.50;1.00
11536;DHT22;5824;49.336;8.652;2024-03-23T03:14:34;13.50;1.00
11536;DHT22;5824;49.336;8.652;2024-03-23T03:16:59;13.50;1.00
11536;DHT22;5824;49.336;8.652;2024-03-23T03:19:25;13.50;1.00
11536;DHT22;5824;49.336;8.652;2024-03-23T03:21:51;13.50;1.00
11536;DHT22;5824;49.336;8.652;2024-03-23T03:24:17;13.50;1.00
11536;DHT22;5824;49.336;8.652;2024-03-23T03:26:42;13.40;1.00
11536;DHT22;5824;49.336;8.652;2024-03-23T03:29:08;13.40;1.00
11536;DHT22;5824;49.336;8.652;2024-03-23T03:31:34;13.40;1.00
11536;DHT22;5824;49.336;8.652;2024-03-23T03:33:59;13.40;1.00
11536;DHT22;5824;49.336;8.652;2024-03-23T03:36:25;13.40;1.00
11536;DHT22;5824;49.336;8.652;2024-03-23T03:38:50;13.40;1.00
11536;DHT22;5824;49.336;8.652;2024-03-23T03:41:16;13.50;1.00
11536;DHT22;5824;49.336;8.652;2024-03-23T03:43:41;13.50;1.00
11536;DHT22;5824;49.336;8.652;2024-03-23T03:46:07;13.50;1.00
11536;DHT22;5824;49.336;8.652;2024-03-23T03:48:33;13.50;1.00
11536;DHT22;5824;49.336;8.652;2024-03-23T03:50:59;13.40;1.00
11536;DHT22;5824;49.336;8.652;2024-03-23T03:53:25;13.40;1.00
11536;DHT22;5824;49.336;8.652;2024-03-23T03:55:50;13.40;1.00
11536;DHT22;5824;49.336;8.652;2024-03-23T03:58:16;13.40;1.00
11536;DHT22;5824;49.336;8.652;2024-03-23T04:00:41;13.30;1.00
11536;DHT22;5824;49.336;8.652;2024-03-23T04:03:07;13.30;1.00
11536;DHT22;5824;49.336;8.652;2024-03-23T04:05:32;13.40;1.00
11536;DHT22;5824;49.336;8.652;2024-03-23T04:07:58;13.40;1.00
11536;DHT22;5824;49.336;8.652;2024-03-23T04:10:24;13.40;1.00
11536;DHT22;5824;49.336;8.652;2024-03-23T04:12:50;13.40;1.00
11536;DHT22;5824;49.336;8.652;2024-03-23T04:15:16;13.40;1.00
11536;DHT22;5824;49.336;8.652;2024-03-23T04:17:41;13.30;1.00
11536;DHT22;5824;49.336;8.652;2024-03-23T04:20:08;13.30;1.00
11536;DHT22;5824;49.336;8.652;2024-03-23T04:22:36;13.30;1.00
11536;DHT22;5824;49.336;8.652;2024-03-23T04:25:03;13.30;1.00
11536;DHT22;5824;49.336;8.652;2024-03-23T04:27:35;13.20;1.00
11536;DHT22;5824;49.336;8.652;2024-03-23T04:30:01;13.20;1.00
11536;DHT22;5824;49.336;8.652;2024-03-23T04:32:27;13.30;1.00
11536;DHT22;5824;49.336;8.652;2024-03-23T04:34:54;13.30;1.00
11536;DHT22;5824;49.336;8.652;2024-03-23T04:37:20;13.30;1.00
11536;DHT22;5824;49.336;8.652;2024-03-23T04:39:45;13.30;1.00
11536;DHT22;5824;49.336;8.652;2024-03-23T04:42:11;13.30;1.00
11536;DHT22;5824;49.336;8.652;2024-03-23T04:44:37;13.30;1.00
11536;DHT22;5824;49.336;8.652;2024-03-23T04:47:03;13.30;1.00
11536;DHT22;5824;49.336;8.652;2024-03-23T04:49:28;13.20;1.00
11536;DHT22;5824;49.336;8.652;2024-03-23T04:51:54;13.20;1.00
11536;DHT22;5824;49.336;8.652;2024-03-23T04:54:20;13.20;1.00
11536;DHT22;5824;49.336;8.652;2024-03-23T04:56:45;13.20;1.00
11536;DHT22;5824;49.336;8.652;2024-03-23T04:59:11;13.10;1.00
11536;DHT22;5824;49.336;8.652;2024-03-23T05:01:36;13.10;1.00
11536;DHT22;5824;49.336;8.652;2024-03-23T05:04:04;13.10;1.00
11536;DHT22;5824;49.336;8.652;2024-03-23T05:06:29;12.90;1.00
11536;DHT22;5824;49.336;8.652;2024-03-23T05:08:55;12.90;1.00
11536;DHT22;5824;49.336;8.652;2024-03-23T05:11:21;12.90;1.00
11536;DHT22;5824;49.336;8.652;2024-03-23T05:13:46;12.90;1.00
11536;DHT22;5824;49.336;8.652;2024-03-23T05:16:12;12.70;1.00
11536;DHT22;5824;49.336;8.652;2024-03-23T05:18:37;12.80;1.00
11536;DHT22;5824;49.336;8.652;2024-03-23T05:21:03;12.80;1.00
11536;DHT22;5824;49.336;8.652;2024-03-23T05:23:29;12.70;1.00
11536;DHT22;5824;49.336;8.652;2024-03-23T05:25:55;12.70;1.00
11536;DHT22;5824;49.336;8.652;2024-03-23T05:28:21;12.70;1.00
11536;DHT22;5824;49.336;8.652;2024-03-23T05:30:53;12.70;1.00
11536;DHT22;5824;49.336;8.652;2024-03-23T05:33:20;12.70;1.00
11536;DHT22;5824;49.336;8.652;2024-03-23T05:35:46;12.60;1.00
11536;DHT22;5824;49.336;8.652;2024-03-23T05:38:12;12.50;1.00
11536;DHT22;5824;49.336;8.652;2024-03-23T05:40:37;12.40;1.00
11536;DHT22;5824;49.336;8.652;2024-03-23T05:43:06;12.40;1.00
11536;DHT22;5824;49.336;8.652;2024-03-23T05:45:32;12.40;1.00
11536;DHT22;5824;49.336;8.652;2024-03-23T05:47:58;12.30;1.00
11536;DHT22;5824;49.336;8.652;2024-03-23T05:50:23;12.20;1.00
11536;DHT22;5824;49.336;8.652;2024-03-23T05:52:49;12.20;1.00
11536;DHT22;5824;49.336;8.652;2024-03-23T05:55:15;12.00;1.00
11536;DHT22;5824;49.336;8.652;2024-03-23T05:57:40;11.80;1.00
11536;DHT22;5824;49.336;8.652;2024-03-23T06:00:06;11.70;1.00
11536;DHT22;5824;49.336;8.652;2024-03-23T06:02:41;11.40;1.00
11536;DHT22;5824;49.336;8.652;2024-03-23T06:05:07;11.30;1.00
11536;DHT22;5824;49.336;8.652;2024-03-23T06:07:32;11.20;1.00
11536;DHT22;5824;49.336;8.652;2024-03-23T06:09:58;11.00;1.00
11536;DHT22;5824;49.336;8.652;2024-03-23T06:12:24;10.90;1.00
11536;DHT22;5824;49.336;8.652;2024-03-23T06:14:49;10.90;1.00
11536;DHT22;5824;49.336;8.652;2024-03-23T06:17:15;10.80;1.00
11536;DHT22;5824;49.336;8.652;2024-03-23T06:19:41;10.80;1.00
11536;DHT22;5824;49.336;8.652;2024-03-23T06:22:06;10.70;1.00
11536;DHT22;5824;49.336;8.652;2024-03-23T06:24:32;10.70;1.00
11536;DHT22;5824;49.336;8.652;2024-03-23T06:26:57;10.80;1.00
11536;DHT22;5824;49.336;8.652;2024-03-23T06:29:23;10.80;1.00
11536;DHT22;5824;49.336;8.652;2024-03-23T06:31:55;10.70;1.00
11536;DHT22;5824;49.336;8.652;2024-03-23T06:34:20;10.70;1.00
11536;DHT22;5824;49.336;8.652;2024-03-23T06:36:48;10.80;1.00
11536;DHT22;5824;49.336;8.652;2024-03-23T06:39:14;10.70;1.00
11536;DHT22;5824;49.336;8.652;2024-03-23T06:41:53;10.90;1.00
11536;DHT22;5824;49.336;8.652;2024-03-23T06:44:20;10.90;1.00
11536;DHT22;5824;49.336;8.652;2024-03-23T06:46:46;10.90;1.00
11536;DHT22;5824;49.336;8.652;2024-03-23T06:49:12;10.90;1.00
11536;DHT22;5824;49.336;8.652;2024-03-23T06:51:37;11.10;1.00
11536;DHT22;5824;49.336;8.652;2024-03-23T06:54:05;11.20;1.00
11536;DHT22;5824;49.336;8.652;2024-03-23T06:56:30;11.20;1.00
11536;DHT22;5824;49.336;8.652;2024-03-23T06:58:56;11.30;1.00
11536;DHT22;5824;49.336;8.652;2024-03-23T07:01:22;11.30;1.00
11536;DHT22;5824;49.336;8.652;2024-03-23T07:03:47;11.20;1.00
11536;DHT22;5824;49.336;8.652;2024-03-23T07:06:13;11.20;1.00
11536;DHT22;5824;49.336;8.652;2024-03-23T07:08:39;11.10;1.00
11536;DHT22;5824;49.336;8.652;2024-03-23T07:11:04;11.00;1.00
11536;DHT22;5824;49.336;8.652;2024-03-23T07:13:30;10.90;1.00
11536;DHT22;5824;49.336;8.652;2024-03-23T07:15:56;10.80;1.00
11536;DHT22;5824;49.336;8.652;2024-03-23T07:18:22;10.80;1.00
11536;DHT22;5824;49.336;8.652;2024-03-23T07:23:19;10.80;1.00
11536;DHT22;5824;49.336;8.652;2024-03-23T07:25:45;10.80;1.00
11536;DHT22;5824;49.336;8.652;2024-03-23T07:28:10;10.90;1.00
11536;DHT22;5824;49.336;8.652;2024-03-23T07:30:36;10.70;1.00
11536;DHT22;5824;49.336;8.652;2024-03-23T07:33:01;10.70;1.00
11536;DHT22;5824;49.336;8.652;2024-03-23T07:35:27;10.70;1.00
11536;DHT22;5824;49.336;8.652;2024-03-23T07:37:52;10.50;1.00
11536;DHT22;5824;49.336;8.652;2024-03-23T07:40:18;10.70;1.00
11536;DHT22;5824;49.336;8.652;2024-03-23T07:42:43;10.70;1.00
11536;DHT22;5824;49.336;8.652;2024-03-23T07:45:09;10.80;1.00
11536;DHT22;5824;49.336;8.652;2024-03-23T07:47:35;11.00;1.00
11536;DHT22;5824;49.336;8.652;2024-03-23T07:50:01;11.00;1.00
11536;DHT22;5824;49.336;8.652;2024-03-23T07:52:29;11.00;1.00
11536;DHT22;5824;49.336;8.652;2024-03-23T07:54:55;10.90;1.00
11536;DHT22;5824;49.336;8.652;2024-03-23T07:57:20;10.90;1.00
11536;DHT22;5824;49.336;8.652;2024-03-23T07:59:46;10.90;1.00
11536;DHT22;5824;49.336;8.652;2024-03-23T08:02:12;10.80;1.00
11536;DHT22;5824;49.336;8.652;2024-03-23T08:04:37;10.80;1.00
11536;DHT22;5824;49.336;8.652;2024-03-23T08:07:03;11.00;1.00
11536;DHT22;5824;49.336;8.652;2024-03-23T08:09:28;11.10;1.00
11536;DHT22;5824;49.336;8.652;2024-03-23T08:11:54;11.00;1.00
11536;DHT22;5824;49.336;8.652;2024-03-23T08:14:19;10.90;1.00
11536;DHT22;5824;49.336;8.652;2024-03-23T08:16:45;11.00;1.00
11536;DHT22;5824;49.336;8.652;2024-03-23T08:19:14;11.10;1.00
11536;DHT22;5824;49.336;8.652;2024-03-23T08:21:40;11.20;1.00
11536;DHT22;5824;49.336;8.652;2024-03-23T08:24:05;11.40;1.00
11536;DHT22;5824;49.336;8.652;2024-03-23T08:26:31;11.50;1.00
11536;DHT22;5824;49.336;8.652;2024-03-23T08:28:56;11.70;1.00
11536;DHT22;5824;49.336;8.652;2024-03-23T08:31:22;11.70;1.00
11536;DHT22;5824;49.336;8.652;2024-03-23T08:33:48;11.70;1.00
11536;DHT22;5824;49.336;8.652;2024-03-23T08:36:13;11.80;1.00
11536;DHT22;5824;49.336;8.652;2024-03-23T08:38:42;11.80;1.00
11536;DHT22;5824;49.336;8.652;2024-03-23T08:41:09;12.00;1.00
11536;DHT22;5824;49.336;8.652;2024-03-23T08:43:36;12.20;1.00
11536;DHT22;5824;49.336;8.652;2024-03-23T08:46:09;12.60;1.00
11536;DHT22;5824;49.336;8.652;2024-03-23T08:48:36;12.80;1.00
11536;DHT22;5824;49.336;8.652;2024-03-23T08:51:03;13.00;1.00
11536;DHT22;5824;49.336;8.652;2024-03-23T08:53:29;13.00;1.00
11536;DHT22;5824;49.336;8.652;2024-03-23T08:55:56;12.90;1.00
11536;DHT22;5824;49.336;8.652;2024-03-23T08:58:24;12.70;1.00
11536;DHT22;5824;49.336;8.652;2024-03-23T09:00:50;12.40;1.00
11536;DHT22;5824;49.336;8.652;2024-03-23T09:03:16;12.40;1.00
11536;DHT22;5824;49.336;8.652;2024-03-23T09:05:42;12.30;1.00
11536;DHT22;5824;49.336;8.652;2024-03-23T09:08:08;12.30;1.00
11536;DHT22;5824;49.336;8.652;2024-03-23T09:10:41;12.70;1.00
11536;DHT22;5824;49.336;8.652;2024-03-23T09:13:06;12.80;1.00
11536;DHT22;5824;49.336;8.652;2024-03-23T09:15:34;13.20;1.00
11536;DHT22;5824;49.336;8.652;2024-03-23T09:18:00;13.50;1.00
11536;DHT22;5824;49.336;8.652;2024-03-23T09:20:26;13.80;1.00
11536;DHT22;5824;49.336;8.652;2024-03-23T09:22:51;13.80;1.00
11536;DHT22;5824;49.336;8.652;2024-03-23T09:25:17;14.20;1.00
11536;DHT22;5824;49.336;8.652;2024-03-23T09:27:42;14.50;1.00
11536;DHT22;5824;49.336;8.652;2024-03-23T09:30:08;14.30;1.00
11536;DHT22;5824;49.336;8.652;2024-03-23T09:32:35;14.20;1.00
11536;DHT22;5824;49.336;8.652;2024-03-23T09:35:00;14.40;1.00
11536;DHT22;5824;49.336;8.652;2024-03-23T09:37:26;15.10;1.00
11536;DHT22;5824;49.336;8.652;2024-03-23T09:39:52;16.20;1.00
11536;DHT22;5824;49.336;8.652;2024-03-23T09:42:17;16.20;1.00
11536;DHT22;5824;49.336;8.652;2024-03-23T09:44:44;15.60;1.00
11536;DHT22;5824;49.336;8.652;2024-03-23T09:47:09;14.70;1.00
11536;DHT22;5824;49.336;8.652;2024-03-23T09:49:35;14.00;1.00
11536;DHT22;5824;49.336;8.652;2024-03-23T09:52:04;13.10;1.00
11536;DHT22;5824;49.336;8.652;2024-03-23T09:54:29;12.80;1.00
11536;DHT22;5824;49.336;8.652;2024-03-23T09:56:55;12.30;1.00
11536;DHT22;5824;49.336;8.652;2024-03-23T09:59:20;12.40;1.00
11536;DHT22;5824;49.336;8.652;2024-03-23T10:01:46;12.80;1.00
11536;DHT22;5824;49.336;8.652;2024-03-23T10:04:35;12.90;1.00
11536;DHT22;5824;49.336;8.652;2024-03-23T10:07:14;12.60;1.00
11536;DHT22;5824;49.336;8.652;2024-03-23T10:09:40;12.40;1.00
11536;DHT22;5824;49.336;8.652;2024-03-23T10:12:13;12.40;1.00
11536;DHT22;5824;49.336;8.652;2024-03-23T10:14:40;12.20;1.00
11536;DHT22;5824;49.336;8.652;2024-03-23T10:17:16;12.00;1.00
11536;DHT22;5824;49.336;8.652;2024-03-23T10:19:45;12.10;1.00
11536;DHT22;5824;49.336;8.652;2024-03-23T10:22:19;12.20;1.00
11536;DHT22;5824;49.336;8.652;2024-03-23T10:24:44;12.30;1.00
11536;DHT22;5824;49.336;8.652;2024-03-23T10:27:15;12.40;1.00
11536;DHT22;5824;49.336;8.652;2024-03-23T10:29:41;12.50;1.00
11536;DHT22;5824;49.336;8.652;2024-03-23T10:32:11;12.50;1.00
11536;DHT22;5824;49.336;8.652;2024-03-23T10:34:37;12.30;1.00
11536;DHT22;5824;49.336;8.652;2024-03-23T10:37:04;12.20;1.00
11536;DHT22;5824;49.336;8.652;2024-03-23T10:39:38;12.30;1.00
11536;DHT22;5824;49.336;8.652;2024-03-23T10:42:05;12.50;1.00
11536;DHT22;5824;49.336;8.652;2024-03-23T10:44:31;12.50;1.00
11536;DHT22;5824;49.336;8.652;2024-03-23T10:47:04;12.60;1.00
11536;DHT22;5824;49.336;8.652;2024-03-23T10:49:32;12.70;1.00
11536;DHT22;5824;49.336;8.652;2024-03-23T10:52:05;12.70;1.00
11536;DHT22;5824;49.336;8.652;2024-03-23T10:54:31;12.70;1.00
11536;DHT22;5824;49.336;8.652;2024-03-23T10:59:31;14.10;1.00
11536;DHT22;5824;49.336;8.652;2024-03-23T11:01:58;15.30;1.00
11536;DHT22;5824;49.336;8.652;2024-03-23T11:04:34;16.10;1.00
11536;DHT22;5824;49.336;8.652;2024-03-23T11:09:52;19.10;1.00
11536;DHT22;5824;49.336;8.652;2024-03-23T11:15:12;18.00;1.00
11536;DHT22;5824;49.336;8.652;2024-03-23T11:17:38;17.10;1.00
11536;DHT22;5824;49.336;8.652;2024-03-23T11:20:05;16.80;1.00
11536;DHT22;5824;49.336;8.652;2024-03-23T11:22:45;16.70;1.00
11536;DHT22;5824;49.336;8.652;2024-03-23T11:25:21;16.40;1.00
11536;DHT22;5824;49.336;8.652;2024-03-23T11:27:48;15.80;1.00
11536;DHT22;5824;49.336;8.652;2024-03-23T11:30:18;15.50;1.00
11536;DHT22;5824;49.336;8.652;2024-03-23T11:32:45;16.30;1.00
11536;DHT22;5824;49.336;8.652;2024-03-23T11:35:31;19.00;1.00
11536;DHT22;5824;49.336;8.652;2024-03-23T11:40:35;23.10;1.00
11536;DHT22;5824;49.336;8.652;2024-03-23T11:43:03;23.00;1.00
11536;DHT22;5824;49.336;8.652;2024-03-23T11:45:33;21.40;1.00
11536;DHT22;5824;49.336;8.652;2024-03-23T11:48:10;19.80;1.00
11536;DHT22;5824;49.336;8.652;2024-03-23T11:50:40;18.30;1.00
11536;DHT22;5824;49.336;8.652;2024-03-23T11:55:56;17.70;1.00
11536;DHT22;5824;49.336;8.652;2024-03-23T11:58:23;18.30;1.00
11536;DHT22;5824;49.336;8.652;2024-03-23T12:01:00;17.00;1.00
11536;DHT22;5824;49.336;8.652;2024-03-23T12:03:31;16.90;1.00
11536;DHT22;5824;49.336;8.652;2024-03-23T12:05:59;15.70;1.00
11536;DHT22;5824;49.336;8.652;2024-03-23T12:11:05;15.00;1.00
11536;DHT22;5824;49.336;8.652;2024-03-23T12:13:31;14.80;1.00
11536;DHT22;5824;49.336;8.652;2024-03-23T12:16:09;14.00;1.00
11536;DHT22;5824;49.336;8.652;2024-03-23T12:18:35;13.50;1.00
11536;DHT22;5824;49.336;8.652;2024-03-23T12:21:01;13.00;1.00
11536;DHT22;5824;49.336;8.652;2024-03-23T12:23:26;12.90;1.00
11536;DHT22;5824;49.336;8.652;2024-03-23T12:25:52;13.00;1.00
11536;DHT22;5824;49.336;8.652;2024-03-23T12:28:17;13.20;1.00
11536;DHT22;5824;49.336;8.652;2024-03-23T12:30:43;13.00;1.00
11536;DHT22;5824;49.336;8.652;2024-03-23T12:33:09;13.00;1.00
11536;DHT22;5824;49.336;8.652;2024-03-23T12:35:34;12.70;1.00
11536;DHT22;5824;49.336;8.652;2024-03-23T12:38:00;12.50;1.00
11536;DHT22;5824;49.336;8.652;2024-03-23T12:40:26;11.90;1.00
11536;DHT22;5824;49.336;8.652;2024-03-23T12:42:53;11.90;1.00
11536;DHT22;5824;49.336;8.652;2024-03-23T12:45:18;11.80;1.00
11536;DHT22;5824;49.336;8.652;2024-03-23T12:47:44;13.50;1.00
11536;DHT22;5824;49.336;8.652;2024-03-23T12:50:09;15.90;1.00
11536;DHT22;5824;49.336;8.652;2024-03-23T12:52:35;16.80;1.00
11536;DHT22;5824;49.336;8.652;2024-03-23T12:55:01;15.70;1.00
11536;DHT22;5824;49.336;8.652;2024-03-23T12:57:26;14.20;1.00
11536;DHT22;5824;49.336;8.652;2024-03-23T12:59:52;13.40;1.00
11536;DHT22;5824;49.336;8.652;2024-03-23T13:02:21;13.40;1.00
11536;DHT22;5824;49.336;8.652;2024-03-23T13:04:51;13.50;1.00
11536;DHT22;5824;49.336;8.652;2024-03-23T13:07:18;13.60;1.00
11536;DHT22;5824;49.336;8.652;2024-03-23T13:09:44;13.80;1.00
11536;DHT22;5824;49.336;8.652;2024-03-23T13:12:09;13.20;1.00
11536;DHT22;5824;49.336;8.652;2024-03-23T13:14:35;12.70;1.00
11536;DHT22;5824;49.336;8.652;2024-03-23T13:17:01;11.70;1.00
11536;DHT22;5824;49.336;8.652;2024-03-23T13:19:28;10.60;1.00
11536;DHT22;5824;49.336;8.652;2024-03-23T13:21:56;10.40;1.00
11536;DHT22;5824;49.336;8.652;2024-03-23T13:24:23;11.00;1.00
11536;DHT22;5824;49.336;8.652;2024-03-23T13:26:50;12.40;1.00
11536;DHT22;5824;49.336;8.652;2024-03-23T13:29:16;13.30;1.00
11536;DHT22;5824;49.336;8.652;2024-03-23T13:31:41;13.10;1.00
11536;DHT22;5824;49.336;8.652;2024-03-23T13:34:07;13.10;1.00
11536;DHT22;5824;49.336;8.652;2024-03-23T13:36:32;14.10;1.00
11536;DHT22;5824;49.336;8.652;2024-03-23T13:38:58;14.30;1.00
11536;DHT22;5824;49.336;8.652;2024-03-23T13:41:24;14.50;1.00
11536;DHT22;5824;49.336;8.652;2024-03-23T13:43:49;14.50;1.00
11536;DHT22;5824;49.336;8.652;2024-03-23T13:46:15;15.00;1.00
11536;DHT22;5824;49.336;8.652;2024-03-23T13:48:40;14.90;1.00
11536;DHT22;5824;49.336;8.652;2024-03-23T13:51:07;14.30;1.00
11536;DHT22;5824;49.336;8.652;2024-03-23T13:53:33;14.60;1.00
11536;DHT22;5824;49.336;8.652;2024-03-23T13:55:58;16.40;1.00
11536;DHT22;5824;49.336;8.652;2024-03-23T13:58:24;18.90;1.00
11536;DHT22;5824;49.336;8.652;2024-03-23T14:00:53;21.70;1.00
11536;DHT22;5824;49.336;8.652;2024-03-23T14:03:18;21.80;1.00
11536;DHT22;5824;49.336;8.652;2024-03-23T14:05:44;22.70;1.00
11536;DHT22;5824;49.336;8.652;2024-03-23T14:08:10;23.40;1.00
11536;DHT22;5824;49.336;8.652;2024-03-23T14:10:39;23.30;1.00
11536;DHT22;5824;49.336;8.652;2024-03-23T14:13:05;24.20;1.00
11536;DHT22;5824;49.336;8.652;2024-03-23T14:15:30;21.10;1.00
11536;DHT22;5824;49.336;8.652;2024-03-23T14:17:56;18.80;1.00
11536;DHT22;5824;49.336;8.652;2024-03-23T14:20:22;17.90;1.00
11536;DHT22;5824;49.336;8.652;2024-03-23T14:22:49;17.60;1.00
11536;DHT22;5824;49.336;8.652;2024-03-23T14:25:14;19.00;1.00
11536;DHT22;5824;49.336;8.652;2024-03-23T14:27:40;20.80;1.00
11536;DHT22;5824;49.336;8.652;2024-03-23T14:30:06;21.40;1.00
11536;DHT22;5824;49.336;8.652;2024-03-23T14:32:32;21.10;1.00
11536;DHT22;5824;49.336;8.652;2024-03-23T14:35:03;19.70;1.00
11536;DHT22;5824;49.336;8.652;2024-03-23T14:37:29;18.70;1.00
11536;DHT22;5824;49.336;8.652;2024-03-23T14:39:58;16.80;1.00
11536;DHT22;5824;49.336;8.652;2024-03-23T14:42:23;16.70;1.00
11536;DHT22;5824;49.336;8.652;2024-03-23T14:44:49;16.40;1.00
11536;DHT22;5824;49.336;8.652;2024-03-23T14:47:15;16.10;1.00
11536;DHT22;5824;49.336;8.652;2024-03-23T14:49:43;16.10;1.00
11536;DHT22;5824;49.336;8.652;2024-03-23T14:52:13;15.70;1.00
11536;DHT22;5824;49.336;8.652;2024-03-23T14:54:38;15.90;1.00
11536;DHT22;5824;49.336;8.652;2024-03-23T14:57:04;16.70;1.00
11536;DHT22;5824;49.336;8.652;2024-03-23T14:59:29;17.30;1.00
11536;DHT22;5824;49.336;8.652;2024-03-23T15:01:55;18.00;1.00
11536;DHT22;5824;49.336;8.652;2024-03-23T15:04:21;18.00;1.00
11536;DHT22;5824;49.336;8.652;2024-03-23T15:06:46;17.50;1.00
11536;DHT22;5824;49.336;8.652;2024-03-23T15:09:14;16.90;1.00
11536;DHT22;5824;49.336;8.652;2024-03-23T15:11:40;15.90;1.00
11536;DHT22;5824;49.336;8.652;2024-03-23T15:14:06;15.70;1.00
11536;DHT22;5824;49.336;8.652;2024-03-23T15:16:32;15.50;1.00
11536;DHT22;5824;49.336;8.652;2024-03-23T15:18:58;14.70;1.00
11536;DHT22;5824;49.336;8.652;2024-03-23T15:21:24;13.90;1.00
11536;DHT22;5824;49.336;8.652;2024-03-23T15:23:49;13.90;1.00
11536;DHT22;5824;49.336;8.652;2024-03-23T15:26:15;14.10;1.00
11536;DHT22;5824;49.336;8.652;2024-03-23T15:28:41;14.30;1.00
11536;DHT22;5824;49.336;8.652;2024-03-23T15:31:19;13.70;1.00
11536;DHT22;5824;49.336;8.652;2024-03-23T15:33:45;13.50;1.00
11536;DHT22;5824;49.336;8.652;2024-03-23T15:36:11;13.20;1.00
11536;DHT22;5824;49.336;8.652;2024-03-23T15:38:37;13.10;1.00
11536;DHT22;5824;49.336;8.652;2024-03-23T15:41:04;12.70;1.00
11536;DHT22;5824;49.336;8.652;2024-03-23T15:43:30;12.70;1.00
11536;DHT22;5824;49.336;8.652;2024-03-23T15:45:57;12.60;1.00
11536;DHT22;5824;49.336;8.652;2024-03-23T15:48:23;12.40;1.00
11536;DHT22;5824;49.336;8.652;2024-03-23T15:50:52;12.20;1.00
11536;DHT22;5824;49.336;8.652;2024-03-23T15:53:19;12.20;1.00
11536;DHT22;5824;49.336;8.652;2024-03-23T15:55:45;12.00;1.00
11536;DHT22;5824;49.336;8.652;2024-03-23T15:58:10;11.10;1.00
11536;DHT22;5824;49.336;8.652;2024-03-23T16:00:36;8.70;1.00
11536;DHT22;5824;49.336;8.652;2024-03-23T16:03:01;8.60;1.00
11536;DHT22;5824;49.336;8.652;2024-03-23T16:05:27;7.60;1.00
11536;DHT22;5824;49.336;8.652;2024-03-23T16:07:53;7.60;1.00
11536;DHT22;5824;49.336;8.652;2024-03-23T16:10:18;7.40;1.00
11536;DHT22;5824;49.336;8.652;2024-03-23T16:12:44;7.50;1.00
11536;DHT22;5824;49.336;8.652;2024-03-23T16:15:09;7.90;1.00
11536;DHT22;5824;49.336;8.652;2024-03-23T16:17:35;8.40;1.00
11536;DHT22;5824;49.336;8.652;2024-03-23T16:20:02;8.80;1.00
11536;DHT22;5824;49.336;8.652;2024-03-23T16:22:28;9.00;1.00
11536;DHT22;5824;49.336;8.652;2024-03-23T16:24:53;9.00;1.00
11536;DHT22;5824;49.336;8.652;2024-03-23T16:27:19;9.00;1.00
11536;DHT22;5824;49.336;8.652;2024-03-23T16:29:45;8.80;1.00
11536;DHT22;5824;49.336;8.652;2024-03-23T16:32:10;8.90;1.00
11536;DHT22;5824;49.336;8.652;2024-03-23T16:34:36;8.90;1.00
11536;DHT22;5824;49.336;8.652;2024-03-23T16:37:01;8.80;1.00
11536;DHT22;5824;49.336;8.652;2024-03-23T16:39:28;8.50;1.00
11536;DHT22;5824;49.336;8.652;2024-03-23T16:41:53;8.40;1.00
11536;DHT22;5824;49.336;8.652;2024-03-23T16:44:19;8.30;1.00
11536;DHT22;5824;49.336;8.652;2024-03-23T16:46:45;8.30;1.00
11536;DHT22;5824;49.336;8.652;2024-03-23T16:49:10;8.30;1.00
11536;DHT22;5824;49.336;8.652;2024-03-23T16:51:36;8.40;1.00
11536;DHT22;5824;49.336;8.652;2024-03-23T16:54:01;8.30;1.00
11536;DHT22;5824;49.336;8.652;2024-03-23T16:56:27;8.30;1.00
11536;DHT22;5824;49.336;8.652;2024-03-23T16:58:52;8.20;1.00
11536;DHT22;5824;49.336;8.652;2024-03-23T17:01:18;8.20;1.00
11536;DHT22;5824;49.336;8.652;2024-03-23T17:03:52;8.20;1.00
11536;DHT22;5824;49.336;8.652;2024-03-23T17:06:19;8.30;1.00
11536;DHT22;5824;49.336;8.652;2024-03-23T17:08:45;8.30;1.00
11536;DHT22;5824;49.336;8.652;2024-03-23T17:11:12;8.20;1.00